createdAt,value
2023-04-08T00:00:52.134Z,6.30
2023-04-08T00:03:19.137Z,5.80
2023-04-08T00:05:46.156Z,7.00
2023-04-08T00:08:13.648Z,6.00
2023-04-08T00:10:40.790Z,5.77
2023-04-08T00:13:07.711Z,5.50
2023-04-08T00:15:34.500Z,5.70
2023-04-08T00:18:02.207Z,5.33
2023-04-08T00:20:29.151Z,5.47
2023-04-08T00:22:56.083Z,6.07
2023-04-08T00:25:25.233Z,5.73
2023-04-08T00:27:52.698Z,5.90
2023-04-08T00:30:19.502Z,5.57
2023-04-08T00:32:46.894Z,4.97
2023-04-08T00:35:14.135Z,5.43
2023-04-08T00:37:41.603Z,5.03
2023-04-08T00:40:08.902Z,5.70
2023-04-08T00:42:36.248Z,5.60
2023-04-08T00:45:03.864Z,5.97
2023-04-08T00:47:31.376Z,5.50
2023-04-08T00:49:58.314Z,5.70
2023-04-08T00:52:25.344Z,6.20
2023-04-08T00:54:52.836Z,5.73
2023-04-08T00:57:19.577Z,5.67
2023-04-08T00:59:46.640Z,5.60
2023-04-08T01:02:22.624Z,6.10
2023-04-08T01:05:10.795Z,6.10
2023-04-08T01:07:45.425Z,5.60
2023-04-08T01:10:27.525Z,6.17
2023-04-08T01:12:59.860Z,6.63
2023-04-08T01:15:29.486Z,6.30
2023-04-08T01:17:59.146Z,6.27
2023-04-08T01:20:27.512Z,7.27
2023-04-08T01:23:09.311Z,7.77
2023-04-08T01:25:38.560Z,5.97
2023-04-08T01:28:14.128Z,6.10
2023-04-08T01:30:42.646Z,6.50
2023-04-08T01:33:15.685Z,6.40
2023-04-08T01:35:43.065Z,6.37
2023-04-08T01:38:14.118Z,5.83
2023-04-08T01:40:42.481Z,6.37
2023-04-08T01:43:12.090Z,6.40
2023-04-08T01:45:39.057Z,7.00
2023-04-08T01:48:07.865Z,6.53
2023-04-08T01:50:35.696Z,6.37
2023-04-08T01:53:04.897Z,6.40
2023-04-08T01:55:34.820Z,7.63
2023-04-08T01:58:02.958Z,6.40
2023-04-08T02:00:32.258Z,6.80
2023-04-08T02:03:01.075Z,7.47
2023-04-08T02:05:28.012Z,7.10
2023-04-08T02:07:54.844Z,6.20
2023-04-08T02:10:22.142Z,6.90
2023-04-08T02:12:49.006Z,6.43
2023-04-08T02:15:16.966Z,7.10
2023-04-08T02:17:51.101Z,6.87
2023-04-08T02:20:26.434Z,7.63
2023-04-08T02:23:03.201Z,6.87
2023-04-08T02:25:32.163Z,6.97
2023-04-08T02:28:00.785Z,7.07
2023-04-08T02:30:28.484Z,7.37
2023-04-08T02:32:58.275Z,7.13
2023-04-08T02:35:27.693Z,7.17
2023-04-08T02:37:54.537Z,6.47
2023-04-08T02:40:29.723Z,7.13
2023-04-08T02:42:58.335Z,6.70
2023-04-08T02:45:30.536Z,7.07
2023-04-08T02:47:58.991Z,7.80
2023-04-08T02:50:26.688Z,7.50
2023-04-08T02:52:53.892Z,7.50
2023-04-08T02:55:20.746Z,6.63
2023-04-08T02:57:48.600Z,7.20
2023-04-08T03:00:16.445Z,7.23
2023-04-08T03:02:43.370Z,7.40
2023-04-08T03:05:11.157Z,6.33
2023-04-08T03:07:38.866Z,6.97
2023-04-08T03:10:07.102Z,6.90
2023-04-08T03:12:34.270Z,7.03
2023-04-08T03:15:01.925Z,7.00
2023-04-08T03:17:28.742Z,9.33
2023-04-08T03:19:55.645Z,8.63
2023-04-08T03:22:24.397Z,7.77
2023-04-08T03:24:51.415Z,7.70
2023-04-08T03:27:18.309Z,7.43
2023-04-08T03:29:46.787Z,6.60
2023-04-08T03:32:13.954Z,6.40
2023-04-08T03:34:40.814Z,7.27
2023-04-08T03:37:08.972Z,7.63
2023-04-08T03:39:36.082Z,7.63
2023-04-08T03:42:03.205Z,7.13
2023-04-08T03:44:30.338Z,7.47
2023-04-08T03:46:57.136Z,7.73
2023-04-08T03:49:24.600Z,8.10
2023-04-08T03:51:51.490Z,7.77
2023-04-08T03:54:18.444Z,8.87
2023-04-08T03:56:45.211Z,7.97
2023-04-08T03:59:12.050Z,8.40
2023-04-08T04:01:41.736Z,9.03
2023-04-08T04:04:09.578Z,7.67
2023-04-08T04:06:36.590Z,7.63
2023-04-08T04:09:03.638Z,8.43
2023-04-08T04:11:30.460Z,8.00
2023-04-08T04:13:57.278Z,8.53
2023-04-08T04:16:24.909Z,9.43
2023-04-08T04:18:53.994Z,8.93
2023-04-08T04:21:21.389Z,8.97
2023-04-08T04:23:48.512Z,8.67
2023-04-08T04:26:15.430Z,9.80
2023-04-08T04:28:42.256Z,8.33
2023-04-08T04:31:18.172Z,8.53
2023-04-08T04:33:45.012Z,9.00
2023-04-08T04:36:12.116Z,8.47
2023-04-08T04:38:39.851Z,7.97
2023-04-08T04:41:07.138Z,7.83
2023-04-08T04:43:33.891Z,8.67
2023-04-08T04:46:00.957Z,8.90
2023-04-08T04:48:27.946Z,8.10
2023-04-08T04:51:00.043Z,8.07
2023-04-08T04:53:27.342Z,9.23
2023-04-08T04:55:55.359Z,8.77
2023-04-08T04:58:22.237Z,9.27
2023-04-08T05:00:49.074Z,8.70
2023-04-08T05:03:16.730Z,10.20
2023-04-08T05:05:43.809Z,9.27
2023-04-08T05:08:10.840Z,9.03
2023-04-08T05:10:37.617Z,9.03
2023-04-08T05:13:04.820Z,8.67
2023-04-08T05:15:32.776Z,8.17
2023-04-08T05:17:59.613Z,8.57
2023-04-08T05:20:26.584Z,8.47
2023-04-08T05:22:53.771Z,9.53
2023-04-08T05:25:20.645Z,9.53
2023-04-08T05:27:47.763Z,9.70
2023-04-08T05:30:14.588Z,9.63
2023-04-08T05:32:41.498Z,9.53
2023-04-08T05:35:10.032Z,9.10
2023-04-08T05:37:36.796Z,9.23
2023-04-08T05:40:03.969Z,10.47
2023-04-08T05:42:32.237Z,9.80
2023-04-08T05:44:59.305Z,9.73
2023-04-08T05:47:26.138Z,9.80
2023-04-08T05:49:53.166Z,10.57
2023-04-08T05:52:21.327Z,9.70
2023-04-08T05:54:48.113Z,10.73
2023-04-08T05:57:14.860Z,10.10
2023-04-08T05:59:41.746Z,10.60
2023-04-08T06:02:08.793Z,11.83
2023-04-08T06:04:36.034Z,12.47
2023-04-08T06:07:04.214Z,11.83
2023-04-08T06:09:31.028Z,11.07
2023-04-08T06:11:58.057Z,11.50
2023-04-08T06:14:25.887Z,11.33
2023-04-08T06:16:55.465Z,9.93
2023-04-08T06:19:22.269Z,13.53
2023-04-08T06:21:49.852Z,11.70
2023-04-08T06:24:16.652Z,11.90
2023-04-08T06:26:43.356Z,10.40
2023-04-08T06:29:10.998Z,12.07
2023-04-08T06:31:37.807Z,12.70
2023-04-08T06:34:04.907Z,11.90
2023-04-08T06:36:31.733Z,10.20
2023-04-08T06:38:58.461Z,10.60
2023-04-08T06:41:26.089Z,9.93
2023-04-08T06:43:58.717Z,10.43
2023-04-08T06:46:26.519Z,9.63
2023-04-08T06:48:53.435Z,9.50
2023-04-08T06:51:20.308Z,8.87
2023-04-08T06:53:47.549Z,9.10
2023-04-08T06:56:14.600Z,8.80
2023-04-08T06:58:41.394Z,8.37
2023-04-08T07:01:08.209Z,7.90
2023-04-08T07:03:35.168Z,8.70
2023-04-08T07:06:02.261Z,7.60
2023-04-08T07:08:29.002Z,7.77
2023-04-08T07:10:56.664Z,7.20
2023-04-08T07:13:23.725Z,7.23
2023-04-08T07:15:50.499Z,7.97
2023-04-08T07:18:17.264Z,7.27
2023-04-08T07:20:44.072Z,8.70
2023-04-08T07:23:11.651Z,8.77
2023-04-08T07:25:38.615Z,7.83
2023-04-08T07:28:05.665Z,7.47
2023-04-08T07:30:34.581Z,7.77
2023-04-08T07:33:01.644Z,7.83
2023-04-08T07:35:29.133Z,8.23
2023-04-08T07:37:57.786Z,7.70
2023-04-08T07:40:25.418Z,8.43
2023-04-08T07:42:52.458Z,8.20
2023-04-08T07:45:19.368Z,8.83
2023-04-08T07:47:46.213Z,12.97
2023-04-08T07:50:13.591Z,13.20
2023-04-08T07:52:41.367Z,13.70
2023-04-08T07:55:08.717Z,14.47
2023-04-08T07:57:35.686Z,14.03
2023-04-08T08:00:03.766Z,13.10
2023-04-08T08:02:40.843Z,12.23
2023-04-08T08:05:08.338Z,13.30
2023-04-08T08:07:35.740Z,12.80
2023-04-08T08:10:02.508Z,12.43
2023-04-08T08:12:29.450Z,13.30
2023-04-08T08:14:59.234Z,15.47
2023-04-08T08:17:30.359Z,15.87
2023-04-08T08:19:57.301Z,16.43
2023-04-08T08:22:24.409Z,16.27
2023-04-08T08:24:58.423Z,16.47
2023-04-08T08:27:26.889Z,16.10
2023-04-08T08:29:53.735Z,15.60
2023-04-08T08:32:20.743Z,16.07
2023-04-08T08:34:47.522Z,15.80
2023-04-08T08:37:14.423Z,15.50
2023-04-08T08:39:41.840Z,15.57
2023-04-08T08:42:22.354Z,17.20
2023-04-08T08:44:49.889Z,16.47
2023-04-08T08:47:17.441Z,16.60
2023-04-08T08:49:45.485Z,16.83
2023-04-08T08:52:16.322Z,17.13
2023-04-08T08:54:44.346Z,17.17
2023-04-08T08:57:21.320Z,17.03
2023-04-08T08:59:48.173Z,16.77
2023-04-08T09:02:30.040Z,16.50
2023-04-08T09:05:02.427Z,17.40
2023-04-08T09:07:30.981Z,16.17
2023-04-08T09:09:59.478Z,17.60
2023-04-08T09:12:28.475Z,17.00
2023-04-08T09:15:08.586Z,15.53
2023-04-08T09:17:38.454Z,16.00
2023-04-08T09:20:12.365Z,16.43
2023-04-08T09:22:58.946Z,17.17
2023-04-08T09:25:28.743Z,15.87
2023-04-08T09:27:56.543Z,15.00
2023-04-08T09:30:28.258Z,15.60
2023-04-08T09:32:57.510Z,14.93
2023-04-08T09:35:26.424Z,16.67
2023-04-08T09:37:53.239Z,17.53
2023-04-08T09:40:20.272Z,17.83
2023-04-08T09:42:51.247Z,16.87
2023-04-08T09:45:19.149Z,16.53
2023-04-08T09:48:22.668Z,16.13
2023-04-08T09:50:51.381Z,16.43
2023-04-08T09:53:23.377Z,19.17
2023-04-08T09:55:53.687Z,17.83
2023-04-08T09:58:27.716Z,16.10
2023-04-08T10:00:55.387Z,17.53
2023-04-08T10:03:25.588Z,16.00
2023-04-08T10:05:54.423Z,16.50
2023-04-08T10:08:22.251Z,17.63
2023-04-08T10:10:49.526Z,16.97
2023-04-08T10:13:17.115Z,16.70
2023-04-08T10:15:45.808Z,17.03
2023-04-08T10:18:18.668Z,16.33
2023-04-08T10:20:46.970Z,16.43
2023-04-08T10:23:18.709Z,16.60
2023-04-08T10:25:48.130Z,15.93
2023-04-08T10:28:15.521Z,17.70
2023-04-08T10:30:48.743Z,16.27
2023-04-08T10:33:37.875Z,16.70
2023-04-08T10:36:07.164Z,16.70
2023-04-08T10:38:34.162Z,16.43
2023-04-08T10:41:01.025Z,17.50
2023-04-08T10:43:33.785Z,17.33
2023-04-08T10:46:01.716Z,17.63
2023-04-08T10:48:31.784Z,17.37
2023-04-08T10:50:59.692Z,17.77
2023-04-08T10:53:34.720Z,16.17
2023-04-08T10:56:13.463Z,15.40
2023-04-08T10:58:50.822Z,16.60
2023-04-08T11:01:18.211Z,15.17
2023-04-08T11:03:46.070Z,16.13
2023-04-08T11:06:13.967Z,15.17
2023-04-08T11:08:42.473Z,15.27
2023-04-08T11:11:10.838Z,14.47
2023-04-08T11:13:51.065Z,14.87
2023-04-08T11:16:21.761Z,17.00
2023-04-08T11:18:49.638Z,15.77
2023-04-08T11:21:17.434Z,16.43
2023-04-08T11:23:44.397Z,16.07
2023-04-08T11:26:12.386Z,16.37
2023-04-08T11:28:40.467Z,16.60
2023-04-08T11:31:08.995Z,16.60
2023-04-08T11:33:36.395Z,15.87
2023-04-08T11:36:08.544Z,16.43
2023-04-08T11:38:40.512Z,15.40
2023-04-08T11:41:07.623Z,16.90
2023-04-08T11:43:36.692Z,16.67
2023-04-08T11:46:22.630Z,16.30
2023-04-08T11:49:02.937Z,16.30
2023-04-08T11:51:30.156Z,16.40
2023-04-08T11:53:57.843Z,16.77
2023-04-08T11:56:25.676Z,16.63
2023-04-08T11:58:53.388Z,16.43
2023-04-08T12:01:21.550Z,16.03
2023-04-08T12:03:57.324Z,17.00
2023-04-08T12:06:24.821Z,17.73
2023-04-08T12:08:51.778Z,17.67
2023-04-08T12:11:20.253Z,17.00
2023-04-08T12:13:49.818Z,16.13
2023-04-08T12:16:17.540Z,17.47
2023-04-08T12:18:44.816Z,18.23
2023-04-08T12:21:11.759Z,17.37
2023-04-08T12:23:38.610Z,19.17
2023-04-08T12:26:05.692Z,19.10
2023-04-08T12:28:32.579Z,19.57
2023-04-08T12:30:59.713Z,18.33
2023-04-08T12:33:26.543Z,17.77
2023-04-08T12:35:54.216Z,19.47
2023-04-08T12:38:21.056Z,18.80
2023-04-08T12:40:49.741Z,19.83
2023-04-08T12:43:18.000Z,18.77
2023-04-08T12:45:44.973Z,19.33
2023-04-08T12:48:11.772Z,19.47
2023-04-08T12:50:38.643Z,19.70
2023-04-08T12:53:05.530Z,20.10
2023-04-08T12:55:32.522Z,19.27
2023-04-08T12:57:59.899Z,19.67
2023-04-08T13:00:26.767Z,19.60
2023-04-08T13:02:53.627Z,19.87
2023-04-08T13:05:29.453Z,20.50
2023-04-08T13:08:06.881Z,19.80
2023-04-08T13:10:34.084Z,19.30
2023-04-08T13:13:00.850Z,20.10
2023-04-08T13:15:28.396Z,19.43
2023-04-08T13:17:55.258Z,18.37
2023-04-08T13:20:25.878Z,19.37
2023-04-08T13:22:53.566Z,20.60
2023-04-08T13:25:20.988Z,19.63
2023-04-08T13:27:47.911Z,19.33
2023-04-08T13:30:16.008Z,19.60
2023-04-08T13:32:43.755Z,17.90
2023-04-08T13:35:10.748Z,17.97
2023-04-08T13:37:37.791Z,18.10
2023-04-08T13:40:05.363Z,18.63
2023-04-08T13:42:32.885Z,19.87
2023-04-08T13:45:00.517Z,18.00
2023-04-08T13:47:29.005Z,18.23
2023-04-08T13:49:55.783Z,17.63
2023-04-08T13:52:22.884Z,17.30
2023-04-08T13:54:49.782Z,17.33
2023-04-08T13:57:16.545Z,15.90
2023-04-08T13:59:44.830Z,15.13
2023-04-08T14:02:11.773Z,15.67
2023-04-08T14:04:40.043Z,16.07
2023-04-08T14:07:07.101Z,16.13
2023-04-08T14:09:34.184Z,16.07
2023-04-08T14:12:01.211Z,16.47
2023-04-08T14:14:28.083Z,15.23
2023-04-08T14:16:55.850Z,15.77
2023-04-08T14:19:23.057Z,15.73
2023-04-08T14:21:49.882Z,15.13
2023-04-08T14:24:16.672Z,15.03
2023-04-08T14:26:44.180Z,14.93
2023-04-08T14:29:11.854Z,14.00
2023-04-08T14:31:38.675Z,13.20
2023-04-08T14:34:05.539Z,13.00
2023-04-08T14:36:33.025Z,13.57
2023-04-08T14:39:00.900Z,13.23
2023-04-08T14:41:27.733Z,14.07
2023-04-08T14:43:54.994Z,13.40
2023-04-08T14:46:22.332Z,12.30
2023-04-08T14:48:49.804Z,12.73
2023-04-08T14:51:16.837Z,12.93
2023-04-08T14:53:44.552Z,13.50
2023-04-08T14:56:11.411Z,11.87
2023-04-08T14:58:38.390Z,13.63
2023-04-08T15:01:05.348Z,13.93
2023-04-08T15:03:32.244Z,13.37
2023-04-08T15:05:59.893Z,13.60
2023-04-08T15:08:26.697Z,14.00
2023-04-08T15:10:53.598Z,14.23
2023-04-08T15:13:20.373Z,14.60
2023-04-08T15:15:47.232Z,14.43
2023-04-08T15:18:14.837Z,14.10
2023-04-08T15:20:41.979Z,14.00
2023-04-08T15:23:08.974Z,15.40
2023-04-08T15:25:35.804Z,15.60
2023-04-08T15:28:02.799Z,14.03
2023-04-08T15:30:35.523Z,13.73
2023-04-08T15:33:04.716Z,14.50
2023-04-08T15:35:33.095Z,14.20
2023-04-08T15:38:01.225Z,13.57
2023-04-08T15:40:28.239Z,15.10
2023-04-08T15:42:56.082Z,14.00
2023-04-08T15:45:23.057Z,14.50
2023-04-08T15:47:50.117Z,13.70
2023-04-08T15:50:17.626Z,13.57
2023-04-08T15:52:45.157Z,14.67
2023-04-08T15:55:12.123Z,14.77
2023-04-08T15:57:39.126Z,15.17
2023-04-08T16:00:16.657Z,14.93
2023-04-08T16:02:44.207Z,15.00
2023-04-08T16:05:13.286Z,14.13
2023-04-08T16:07:40.309Z,15.87
2023-04-08T16:10:07.678Z,15.30
2023-04-08T16:12:34.815Z,14.50
2023-04-08T16:15:01.813Z,15.33
2023-04-08T16:17:28.724Z,13.83
2023-04-08T16:19:55.605Z,14.23
2023-04-08T16:22:22.392Z,15.23
2023-04-08T16:24:49.202Z,14.53
2023-04-08T16:27:16.637Z,13.93
2023-04-08T16:29:43.391Z,14.57
2023-04-08T16:32:10.675Z,14.23
2023-04-08T16:34:37.580Z,15.60
2023-04-08T16:37:04.363Z,13.57
2023-04-08T16:39:32.064Z,14.27
2023-04-08T16:41:58.899Z,14.93
2023-04-08T16:44:25.771Z,15.03
2023-04-08T16:46:52.672Z,15.40
2023-04-08T16:49:19.644Z,14.80
2023-04-08T16:51:47.123Z,15.10
2023-04-08T16:54:15.877Z,14.97
2023-04-08T16:56:45.751Z,15.23
2023-04-08T16:59:13.092Z,15.87
2023-04-08T17:01:40.128Z,14.90
2023-04-08T17:04:07.110Z,14.73
2023-04-08T17:06:37.775Z,14.80
2023-04-08T17:09:04.588Z,15.77
2023-04-08T17:11:32.005Z,14.17
2023-04-08T17:13:59.475Z,15.70
2023-04-08T17:16:26.363Z,15.47
2023-04-08T17:18:53.356Z,14.80
2023-04-08T17:21:20.369Z,15.47
2023-04-08T17:23:48.442Z,14.97
2023-04-08T17:26:16.237Z,14.90
2023-04-08T17:28:43.513Z,16.37
2023-04-08T17:31:11.207Z,15.77
2023-04-08T17:33:37.991Z,16.10
2023-04-08T17:36:05.229Z,16.43
2023-04-08T17:38:32.995Z,16.07
2023-04-08T17:40:59.794Z,16.60
2023-04-08T17:43:27.337Z,16.23
2023-04-08T17:45:54.361Z,17.63
2023-04-08T17:48:21.417Z,16.57
2023-04-08T17:50:48.317Z,17.30
2023-04-08T17:53:16.508Z,16.90
2023-04-08T17:55:43.244Z,17.90
2023-04-08T17:58:10.093Z,17.53
2023-04-08T18:00:36.932Z,19.30
2023-04-08T18:03:04.242Z,23.00
2023-04-08T18:05:32.762Z,19.10
2023-04-08T18:07:59.674Z,18.57
2023-04-08T18:10:26.551Z,18.77
2023-04-08T18:12:57.773Z,16.73
2023-04-08T18:15:36.440Z,17.47
2023-04-08T18:18:03.531Z,17.20
2023-04-08T18:20:30.421Z,17.27
2023-04-08T18:22:57.259Z,18.20
2023-04-08T18:25:24.108Z,18.13
2023-04-08T18:27:51.259Z,17.67
2023-04-08T18:30:18.349Z,19.00
2023-04-08T18:32:45.146Z,17.80
2023-04-08T18:35:11.971Z,17.63
2023-04-08T18:37:38.751Z,17.27
2023-04-08T18:40:07.565Z,18.53
2023-04-08T18:42:34.408Z,17.00
2023-04-08T18:45:01.972Z,18.73
2023-04-08T18:47:28.847Z,17.20
2023-04-08T18:49:56.877Z,16.30
2023-04-08T18:52:23.653Z,18.37
2023-04-08T18:54:50.713Z,18.03
2023-04-08T18:57:18.392Z,18.33
2023-04-08T18:59:48.676Z,18.03
2023-04-08T19:02:17.263Z,17.07
2023-04-08T19:04:44.150Z,17.73
2023-04-08T19:07:12.031Z,17.90
2023-04-08T19:13:04.997Z,17.27
2023-04-08T19:15:31.972Z,18.67
2023-04-08T19:17:59.463Z,17.83
2023-04-08T19:20:27.463Z,19.17
2023-04-08T19:22:55.978Z,18.43
2023-04-08T19:25:22.893Z,18.73
2023-04-08T19:27:49.877Z,19.17
2023-04-08T19:30:17.111Z,19.57
2023-04-08T19:32:44.427Z,19.17
2023-04-08T19:35:12.445Z,19.17
2023-04-08T19:37:39.446Z,18.50
2023-04-08T19:40:08.246Z,20.47
2023-04-08T19:42:35.039Z,19.13
2023-04-08T19:45:03.154Z,19.33
2023-04-08T19:47:30.928Z,20.17
2023-04-08T19:49:59.019Z,19.50
2023-04-08T19:52:27.054Z,19.30
2023-04-08T19:54:54.172Z,20.00
2023-04-08T19:57:21.239Z,19.23
2023-04-08T19:59:48.937Z,19.17
2023-04-08T20:02:16.393Z,17.63
2023-04-08T20:04:46.371Z,17.97
2023-04-08T20:07:14.668Z,17.10
2023-04-08T20:09:41.641Z,16.43
2023-04-08T20:12:09.236Z,13.60
2023-04-08T20:14:39.017Z,14.20
2023-04-08T20:17:05.846Z,13.33
2023-04-08T20:19:33.352Z,12.77
2023-04-08T20:22:01.791Z,13.07
2023-04-08T20:24:30.201Z,13.10
2023-04-08T20:26:57.384Z,12.67
2023-04-08T20:29:24.278Z,12.90
2023-04-08T20:31:51.924Z,13.27
2023-04-08T20:34:19.054Z,13.03
2023-04-08T20:36:46.794Z,13.30
2023-04-08T20:39:13.687Z,13.70
2023-04-08T20:41:40.751Z,13.23
2023-04-08T20:44:09.814Z,13.60
2023-04-08T20:46:37.892Z,13.17
2023-04-08T20:49:05.378Z,14.03
2023-04-08T20:51:33.865Z,13.23
2023-04-08T20:54:02.617Z,13.10
2023-04-08T20:56:30.375Z,13.13
2023-04-08T20:58:59.659Z,13.47
2023-04-08T21:01:28.049Z,13.10
2023-04-08T21:03:55.052Z,14.53
2023-04-08T21:06:22.301Z,13.93
2023-04-08T21:08:50.141Z,13.90
2023-04-08T21:11:17.710Z,13.57
2023-04-08T21:13:46.008Z,14.13
2023-04-08T21:16:14.254Z,12.67
2023-04-08T21:18:41.228Z,12.93
2023-04-08T21:21:10.133Z,13.70
2023-04-08T21:23:37.039Z,13.80
2023-04-08T21:26:03.925Z,13.80
2023-04-08T21:28:32.004Z,11.93
2023-04-08T21:31:08.517Z,12.27
2023-04-08T21:33:35.418Z,13.83
2023-04-08T21:36:02.300Z,12.50
2023-04-08T21:38:29.237Z,13.60
2023-04-08T21:40:56.128Z,14.00
2023-04-08T21:43:23.014Z,13.93
2023-04-08T21:45:49.870Z,14.70
2023-04-08T21:48:17.268Z,14.63
2023-04-08T21:50:46.212Z,14.47
2023-04-08T21:53:13.500Z,13.97
2023-04-08T21:55:40.305Z,14.57
2023-04-08T21:58:07.087Z,14.20
2023-04-08T22:00:33.974Z,16.10
2023-04-08T22:03:01.146Z,14.37
2023-04-08T22:05:28.593Z,14.47
2023-04-08T22:07:55.413Z,14.80
2023-04-08T22:10:22.367Z,14.47
2023-04-08T22:12:49.261Z,13.87
2023-04-08T22:15:16.920Z,14.63
2023-04-08T22:17:44.111Z,13.87
2023-04-08T22:20:11.446Z,14.70
2023-04-08T22:22:38.286Z,15.83
2023-04-08T22:25:05.836Z,15.63
2023-04-08T22:27:32.647Z,17.03
2023-04-08T22:29:59.416Z,15.50
2023-04-08T22:32:26.544Z,16.00
2023-04-08T22:34:53.423Z,16.50
2023-04-08T22:37:20.172Z,16.47
2023-04-08T22:39:47.756Z,15.50
2023-04-08T22:42:14.574Z,14.03
2023-04-08T22:44:41.413Z,14.63
2023-04-08T22:47:08.201Z,14.43
2023-04-08T22:49:34.985Z,14.20
2023-04-08T22:52:02.740Z,14.67
2023-04-08T22:54:29.613Z,14.27
2023-04-08T22:56:56.693Z,15.17
2023-04-08T22:59:23.621Z,14.73
2023-04-08T23:01:50.438Z,13.30
2023-04-08T23:04:18.056Z,13.37
2023-04-08T23:06:44.968Z,13.87
2023-04-08T23:09:11.711Z,13.57
2023-04-08T23:11:38.613Z,13.77
2023-04-08T23:14:05.738Z,12.80
2023-04-08T23:16:33.029Z,14.20
2023-04-08T23:18:59.873Z,14.27
2023-04-08T23:21:27.079Z,13.70
2023-04-08T23:23:53.900Z,14.23
2023-04-08T23:26:23.378Z,13.60
2023-04-08T23:28:50.454Z,13.57
2023-04-08T23:31:18.243Z,14.00
2023-04-08T23:33:45.037Z,13.80
2023-04-08T23:36:12.509Z,13.60
2023-04-08T23:38:39.353Z,13.87
2023-04-08T23:41:07.281Z,14.70
2023-04-08T23:43:36.219Z,13.97
2023-04-08T23:46:03.567Z,14.97
2023-04-08T23:48:30.404Z,14.73
2023-04-08T23:50:57.197Z,14.10
2023-04-08T23:53:23.931Z,14.37
2023-04-08T23:55:50.723Z,14.23
2023-04-08T23:58:18.382Z,14.77
